Time;durP1;ratioP1;P1;durP2;ratioP2;P2;SDS_P1;SDS_P2;PMS_P1;PMS_P2;Temp;Humidity;BMP_temperature;BMP_pressure;BME280_temperature;BME280_humidity;BME280_pressure;Samples;Min_cycle;Max_cycle;Signal;HPM_P1;HPM_P2
2023/01/29 00:45:02;;;;;;;;;;;10.10;92.20;;;;;;4591190;19;19918;-37
2023/01/29 00:46:34;;;;;;;;;;;10.10;92.20;;;;;;4591651;19;19915;-37
2023/01/29 00:48:05;;;;;;;;;;;10.10;92.10;;;;;;4591353;19;19918;-35
2023/01/29 00:49:36;;;;;;;;;;;10.10;92.10;;;;;;4591487;19;19945;-34
2023/01/29 00:51:07;;;;;;;;;;;10.10;92.30;;;;;;4591277;19;19922;-34
2023/01/29 00:52:39;;;;;;;;;;;10.10;92.20;;;;;;4591370;19;19914;-34
2023/01/29 00:54:11;;;;;;;;;;;10.10;92.30;;;;;;4590028;19;19919;-34
2023/01/29 00:55:43;;;;;;;;;;;9.90;92.70;;;;;;4590571;19;20257;-35
2023/01/29 00:57:14;;;;;;;;;;;9.90;92.90;;;;;;4591205;19;20251;-34
2023/01/29 00:58:45;;;;;;;;;;;10.00;92.70;;;;;;4590394;19;19967;-34
2023/01/29 01:00:16;;;;;;;;;;;10.00;92.40;;;;;;4591223;19;20014;-37
2023/01/29 01:03:40;;;;;;;;;;;10.00;92.80;;;;;;4590941;19;19923;-35
2023/01/29 01:05:16;;;;;;;;;;;10.00;92.30;;;;;;4589966;19;19914;-36
2023/01/29 01:06:47;;;;;;;;;;;10.00;92.40;;;;;;4590976;19;19915;-36
2023/01/29 01:10:20;;;;;;;;;;;9.80;92.70;;;;;;4595382;19;19918;-36
2023/01/29 01:11:51;;;;;;;;;;;9.70;92.80;;;;;;4594519;19;19997;-37
2023/01/29 01:13:22;;;;;;;;;;;9.70;92.60;;;;;;4594749;19;20010;-35
2023/01/29 01:14:53;;;;;;;;;;;9.70;92.70;;;;;;4596124;19;19915;-35
2023/01/29 01:16:25;;;;;;;;;;;9.70;92.70;;;;;;4595356;19;19925;-37
2023/01/29 01:17:58;;;;;;;;;;;9.70;92.60;;;;;;4593428;19;19922;-35
2023/01/29 01:19:29;;;;;;;;;;;9.70;92.70;;;;;;4595716;19;20251;-34
2023/01/29 01:21:00;;;;;;;;;;;9.70;92.40;;;;;;4595811;19;19919;-34
2023/01/29 01:22:32;;;;;;;;;;;9.70;92.60;;;;;;4594258;19;19911;-34
2023/01/29 01:24:04;;;;;;;;;;;9.60;92.50;;;;;;4595156;19;19918;-34
2023/01/29 01:25:35;;;;;;;;;;;9.60;92.50;;;;;;4594263;19;19922;-36
2023/01/29 01:27:06;;;;;;;;;;;9.60;92.30;;;;;;4595180;19;19918;-37
2023/01/29 01:28:38;;;;;;;;;;;9.60;92.60;;;;;;4595485;19;19974;-35
2023/01/29 01:30:10;;;;;;;;;;;9.60;92.60;;;;;;4595864;19;19915;-34
2023/01/29 01:31:41;;;;;;;;;;;9.60;92.60;;;;;;4596096;19;19915;-33
2023/01/29 01:33:12;;;;;;;;;;;9.60;92.40;;;;;;4595071;19;19970;-33
2023/01/29 01:34:45;;;;;;;;;;;9.70;92.70;;;;;;4595165;19;19914;-33
2023/01/29 01:36:17;;;;;;;;;;;9.60;92.50;;;;;;4595566;19;19923;-34
2023/01/29 01:37:48;;;;;;;;;;;9.60;92.40;;;;;;4594712;19;19919;-33
2023/01/29 01:39:19;;;;;;;;;;;9.60;92.50;;;;;;4594809;19;20332;-35
2023/01/29 01:40:50;;;;;;;;;;;9.60;92.40;;;;;;4594122;19;19926;-36
2023/01/29 05:31:20;;;;;;;;;;;9.20;93.40;;;;;;4589034;19;19929;-35
2023/01/29 05:32:51;;;;;;;;;;;9.40;93.40;;;;;;4589360;19;20290;-34
2023/01/29 05:34:23;;;;;;;;;;;9.50;93.50;;;;;;4590247;19;20259;-35
2023/01/29 05:35:55;;;;;;;;;;;9.40;93.30;;;;;;4590775;19;19930;-33
2023/01/29 05:37:26;;;;;;;;;;;9.40;93.40;;;;;;4591848;19;20348;-35
2023/01/29 05:38:57;;;;;;;;;;;9.40;93.40;;;;;;4589556;19;20005;-34
2023/01/29 05:40:28;;;;;;;;;;;9.40;93.30;;;;;;4592761;19;19938;-36
2023/01/29 05:41:59;;;;;;;;;;;9.40;93.30;;;;;;4590755;19;20188;-33
2023/01/29 05:43:30;;;;;;;;;;;9.50;93.40;;;;;;4592141;19;19915;-36
2023/01/29 05:45:01;;;;;;;;;;;9.50;93.20;;;;;;4591898;19;19919;-35
2023/01/29 05:46:32;;;;;;;;;;;9.60;93.30;;;;;;4590369;19;19986;-34
2023/01/29 05:48:03;;;;;;;;;;;9.50;93.10;;;;;;4590089;19;19970;-37
2023/01/29 05:49:35;;;;;;;;;;;9.50;93.10;;;;;;4592781;19;19922;-34
2023/01/29 05:51:06;;;;;;;;;;;9.50;93.30;;;;;;4591761;19;19915;-36
2023/01/29 05:52:37;;;;;;;;;;;9.50;93.20;;;;;;4592625;19;19918;-34
2023/01/29 05:54:12;;;;;;;;;;;9.50;93.30;;;;;;4596513;19;19923;-33
2023/01/29 05:55:44;;;;;;;;;;;9.60;93.20;;;;;;4593191;19;19922;-36
2023/01/29 05:57:15;;;;;;;;;;;9.60;93.20;;;;;;4596549;19;19911;-33
2023/01/29 05:58:46;;;;;;;;;;;9.50;93.40;;;;;;4593676;19;19918;-33
2023/01/29 06:00:17;;;;;;;;;;;9.50;93.30;;;;;;4596481;19;19918;-34
2023/01/29 06:01:49;;;;;;;;;;;9.60;93.60;;;;;;4595889;19;19922;-34
2023/01/29 06:03:20;;;;;;;;;;;9.50;93.50;;;;;;4596949;19;19919;-34
2023/01/29 06:04:51;;;;;;;;;;;9.50;93.60;;;;;;4594822;19;19929;-34
2023/01/29 06:06:22;;;;;;;;;;;9.40;93.80;;;;;;4595035;19;19928;-34
2023/01/29 06:07:54;;;;;;;;;;;9.50;94.00;;;;;;4596993;19;19918;-36
2023/01/29 06:09:25;;;;;;;;;;;9.40;94.40;;;;;;4594535;19;20289;-33
2023/01/29 06:10:57;;;;;;;;;;;9.40;94.50;;;;;;4597088;19;20338;-33
2023/01/29 06:12:28;;;;;;;;;;;9.50;94.80;;;;;;4595098;19;19941;-33
2023/01/29 06:13:59;;;;;;;;;;;9.50;95.00;;;;;;4594870;19;19926;-35
2023/01/29 06:15:31;;;;;;;;;;;9.50;95.20;;;;;;4596043;19;19926;-35
2023/01/29 06:17:04;;;;;;;;;;;9.50;95.40;;;;;;4595753;19;19942;-36
2023/01/29 06:18:39;;;;;;;;;;;9.50;95.30;;;;;;4591779;19;19927;-36
2023/01/29 06:20:10;;;;;;;;;;;9.50;95.40;;;;;;4592074;19;19918;-35
2023/01/29 06:21:41;;;;;;;;;;;9.50;95.50;;;;;;4592099;19;19922;-33
2023/01/29 06:23:12;;;;;;;;;;;9.50;95.70;;;;;;4592449;19;20309;-36
2023/01/29 06:24:44;;;;;;;;;;;9.50;95.80;;;;;;4591986;19;20049;-36
2023/01/29 06:26:15;;;;;;;;;;;9.60;95.80;;;;;;4592402;19;20329;-35
2023/01/29 06:27:49;;;;;;;;;;;9.60;95.80;;;;;;4592286;19;19966;-34
2023/01/29 06:29:20;;;;;;;;;;;9.60;95.70;;;;;;4592415;19;19925;-33
2023/01/29 06:32:37;;;;;;;;;;;9.50;95.70;;;;;;4591567;19;19978;-36
2023/01/29 06:34:08;;;;;;;;;;;9.60;96.10;;;;;;4591975;19;20253;-33
2023/01/29 06:35:39;;;;;;;;;;;9.60;95.90;;;;;;4592064;19;20406;-35
2023/01/29 06:37:10;;;;;;;;;;;9.60;95.90;;;;;;4591838;19;19917;-35
2023/01/29 06:38:43;;;;;;;;;;;9.70;95.90;;;;;;4590839;19;19938;-33
2023/01/29 06:40:14;;;;;;;;;;;9.60;95.80;;;;;;4591680;19;19929;-36
2023/01/29 06:41:45;;;;;;;;;;;9.70;95.80;;;;;;4592520;19;20317;-33
2023/01/29 06:43:16;;;;;;;;;;;9.80;95.90;;;;;;4591465;19;19914;-34
2023/01/29 06:44:48;;;;;;;;;;;9.80;95.80;;;;;;4592158;19;19941;-32
2023/01/29 06:46:19;;;;;;;;;;;9.80;95.70;;;;;;4591607;19;19923;-33
2023/01/29 06:47:50;;;;;;;;;;;9.70;95.70;;;;;;4591154;19;19928;-34
2023/01/29 06:49:22;;;;;;;;;;;9.70;95.70;;;;;;4591668;19;19925;-35
2023/01/29 06:50:54;;;;;;;;;;;9.70;95.80;;;;;;4591568;19;19945;-34
2023/01/29 06:52:27;;;;;;;;;;;9.60;95.70;;;;;;4591600;19;20336;-33
2023/01/29 06:53:59;;;;;;;;;;;9.70;95.80;;;;;;4590893;19;19915;-34
2023/01/29 06:55:30;;;;;;;;;;;9.90;95.70;;;;;;4589825;19;20340;-35
2023/01/29 06:57:00;;;;;;;;;;;9.90;95.60;;;;;;4591552;19;19918;-35
2023/01/29 06:58:32;;;;;;;;;;;10.00;95.50;;;;;;4590994;19;19919;-33
2023/01/29 07:00:03;;;;;;;;;;;10.00;95.40;;;;;;4591179;19;19964;-34
2023/01/29 07:01:35;;;;;;;;;;;10.00;95.30;;;;;;4589011;19;20596;-34
2023/01/29 07:03:07;;;;;;;;;;;10.00;95.30;;;;;;4589584;19;19958;-34
2023/01/29 07:04:41;;;;;;;;;;;10.10;95.20;;;;;;4589957;19;19919;-34
2023/01/29 07:06:12;;;;;;;;;;;10.20;95.30;;;;;;4591096;19;19918;-33
2023/01/29 07:07:43;;;;;;;;;;;10.10;95.20;;;;;;4589867;19;19934;-34
2023/01/29 07:09:14;;;;;;;;;;;10.10;95.20;;;;;;4589586;19;19927;-34
2023/01/29 07:10:45;;;;;;;;;;;10.10;95.40;;;;;;4589297;19;19915;-34
2023/01/29 07:12:16;;;;;;;;;;;10.10;95.30;;;;;;4592103;19;19922;-34
2023/01/29 07:13:47;;;;;;;;;;;10.10;95.30;;;;;;4590383;19;19918;-34
2023/01/29 07:15:20;;;;;;;;;;;10.10;95.20;;;;;;4591664;19;19923;-36
2023/01/29 07:16:51;;;;;;;;;;;10.10;95.30;;;;;;4590911;19;19915;-33
2023/01/29 07:18:24;;;;;;;;;;;10.10;95.20;;;;;;4590098;19;19923;-35
2023/01/29 07:19:56;;;;;;;;;;;10.10;95.20;;;;;;4590634;19;19915;-33
2023/01/29 07:21:28;;;;;;;;;;;9.90;95.30;;;;;;4591395;19;19919;-37
2023/01/29 07:22:59;;;;;;;;;;;9.90;95.50;;;;;;4590826;19;19921;-34
2023/01/29 07:24:30;;;;;;;;;;;9.80;95.50;;;;;;4591039;19;19918;-33
2023/01/29 07:26:02;;;;;;;;;;;9.90;95.60;;;;;;4591354;19;20325;-35
2023/01/29 07:27:33;;;;;;;;;;;9.80;95.50;;;;;;4591029;19;19956;-32
2023/01/29 07:29:04;;;;;;;;;;;7.90;96.90;;;;;;4590199;19;19911;-35
2023/01/29 07:30:36;;;;;;;;;;;6.40;99.60;;;;;;4589958;19;20329;-33
2023/01/29 07:35:39;;;;;;;;;;;5.40;99.90;;;;;;4589014;19;19990;-33
2023/01/29 07:37:10;;;;;;;;;;;5.40;99.90;;;;;;4589961;19;19921;-37
2023/01/29 07:38:41;;;;;;;;;;;6.40;99.90;;;;;;4588837;19;19918;-35
2023/01/29 07:40:12;;;;;;;;;;;7.40;99.90;;;;;;4591329;19;19915;-34
2023/01/29 07:41:43;;;;;;;;;;;8.00;99.20;;;;;;4590560;19;19923;-36
2023/01/29 07:43:15;;;;;;;;;;;8.40;98.40;;;;;;4589029;19;19946;-36
2023/01/29 07:44:46;;;;;;;;;;;8.60;97.80;;;;;;4586806;19;20029;-35
2023/01/29 07:46:17;;;;;;;;;;;8.80;97.60;;;;;;4587684;19;19929;-35
2023/01/29 07:47:50;;;;;;;;;;;8.90;97.30;;;;;;4589461;19;19934;-35
2023/01/29 07:49:22;;;;;;;;;;;9.10;97.30;;;;;;4590632;19;19918;-34
2023/01/29 07:50:53;;;;;;;;;;;9.10;97.10;;;;;;4589017;19;19950;-34
2023/01/29 07:52:24;;;;;;;;;;;9.20;97.10;;;;;;4588635;19;19922;-34
2023/01/29 07:53:55;;;;;;;;;;;9.30;97.10;;;;;;4588860;19;19919;-34
2023/01/29 07:55:26;;;;;;;;;;;9.40;96.90;;;;;;4583322;19;19918;-34
2023/01/29 07:56:57;;;;;;;;;;;9.40;97.00;;;;;;4589355;19;19922;-34
2023/01/29 07:58:28;;;;;;;;;;;9.40;96.90;;;;;;4591510;19;19922;-34
2023/01/29 07:59:59;;;;;;;;;;;9.40;96.80;;;;;;4592320;19;19915;-34
2023/01/29 08:01:30;;;;;;;;;;;9.40;96.80;;;;;;4592429;19;19921;-34
2023/01/29 08:03:04;;;;;;;;;;;9.40;96.80;;;;;;4590888;19;19923;-34
2023/01/29 08:04:35;;;;;;;;;;;9.50;96.90;;;;;;4592122;19;19919;-34
2023/01/29 08:06:06;;;;;;;;;;;9.50;96.50;;;;;;4590247;19;19990;-34
2023/01/29 08:07:37;;;;;;;;;;;9.50;96.50;;;;;;4591497;19;19922;-34
2023/01/29 08:09:09;;;;;;;;;;;9.40;96.50;;;;;;4592074;19;19935;-34
2023/01/29 08:10:40;;;;;;;;;;;9.40;96.60;;;;;;4590270;19;19919;-34
2023/01/29 08:12:19;;;;;;;;;;;9.50;96.60;;;;;;4591855;19;19938;-34
2023/01/29 08:13:56;;;;;;;;;;;9.60;96.40;;;;;;4587663;19;19934;-34
2023/01/29 08:15:27;;;;;;;;;;;9.70;96.60;;;;;;4588149;19;20341;-33
2023/01/29 08:16:58;;;;;;;;;;;9.70;96.50;;;;;;4589218;19;19929;-34
2023/01/29 08:18:30;;;;;;;;;;;9.70;96.50;;;;;;4588277;19;19930;-34
2023/01/29 08:20:01;;;;;;;;;;;9.70;96.60;;;;;;4590193;19;20006;-34
2023/01/29 08:21:32;;;;;;;;;;;9.50;96.30;;;;;;4589630;19;20361;-34
2023/01/29 08:23:04;;;;;;;;;;;9.50;96.30;;;;;;4589382;19;19923;-31
2023/01/29 08:24:35;;;;;;;;;;;9.60;96.30;;;;;;4589895;19;19914;-32
2023/01/29 08:26:06;;;;;;;;;;;9.60;96.50;;;;;;4590019;19;19918;-33
2023/01/29 08:27:37;;;;;;;;;;;9.60;96.40;;;;;;4588628;19;19989;-33
2023/01/29 08:29:09;;;;;;;;;;;9.60;96.40;;;;;;4589849;19;19942;-32
2023/01/29 08:30:40;;;;;;;;;;;9.60;96.20;;;;;;4588462;19;20295;-33
2023/01/29 08:32:11;;;;;;;;;;;9.60;96.20;;;;;;4589986;19;19933;-33
2023/01/29 08:33:42;;;;;;;;;;;9.60;96.00;;;;;;4588733;19;19927;-33
2023/01/29 08:36:59;;;;;;;;;;;9.70;96.10;;;;;;4588767;19;20155;-33
2023/01/29 08:38:30;;;;;;;;;;;9.70;96.00;;;;;;4587253;19;19936;-33
2023/01/29 08:40:02;;;;;;;;;;;9.70;96.30;;;;;;4588325;19;19923;-34
2023/01/29 08:41:33;;;;;;;;;;;9.70;96.10;;;;;;4588885;19;19914;-34
2023/01/29 08:43:09;;;;;;;;;;;9.70;96.10;;;;;;4590185;19;19945;-33
2023/01/29 08:44:54;;;;;;;;;;;9.70;96.20;;;;;;4590008;19;19926;-34
2023/01/29 08:46:32;;;;;;;;;;;9.70;96.10;;;;;;4589085;19;19922;-32
2023/01/29 08:48:04;;;;;;;;;;;9.80;96.40;;;;;;4588390;19;19986;-33
2023/01/29 08:49:36;;;;;;;;;;;9.90;96.30;;;;;;4587063;19;19923;-33
2023/01/29 08:51:07;;;;;;;;;;;9.80;96.30;;;;;;4588088;19;19986;-33
2023/01/29 08:52:38;;;;;;;;;;;9.80;96.20;;;;;;4587866;19;19932;-36
2023/01/29 08:54:10;;;;;;;;;;;9.80;96.40;;;;;;4589547;19;19922;-34
2023/01/29 08:55:41;;;;;;;;;;;10.00;96.10;;;;;;4588534;19;19922;-34
2023/01/29 08:57:12;;;;;;;;;;;10.00;95.80;;;;;;4589525;19;19942;-34
2023/01/29 08:58:43;;;;;;;;;;;10.00;96.00;;;;;;4587742;19;19937;-34
2023/01/29 09:00:14;;;;;;;;;;;10.00;96.10;;;;;;4588229;19;19926;-36
2023/01/29 09:01:45;;;;;;;;;;;10.10;95.90;;;;;;4588281;19;19941;-34
2023/01/29 09:03:16;;;;;;;;;;;10.10;95.90;;;;;;4588876;19;19922;-36
2023/01/29 09:04:47;;;;;;;;;;;10.10;95.90;;;;;;4589921;19;19929;-34
2023/01/29 09:06:18;;;;;;;;;;;10.10;96.00;;;;;;4590465;19;19923;-34
2023/01/29 09:07:49;;;;;;;;;;;10.10;95.90;;;;;;4590630;19;19922;-33
2023/01/29 09:09:20;;;;;;;;;;;10.10;96.00;;;;;;4588656;19;19933;-34
2023/01/29 09:10:51;;;;;;;;;;;10.10;95.90;;;;;;4590311;19;19915;-34
2023/01/29 09:12:22;;;;;;;;;;;10.10;96.00;;;;;;4590765;19;20264;-35
2023/01/29 09:13:53;;;;;;;;;;;10.10;96.00;;;;;;4589036;19;19922;-36
2023/01/29 09:15:24;;;;;;;;;;;10.20;95.90;;;;;;4591472;19;19991;-36
2023/01/29 09:16:55;;;;;;;;;;;10.20;95.90;;;;;;4590017;19;20257;-34
2023/01/29 09:18:26;;;;;;;;;;;10.10;95.90;;;;;;4590729;19;19978;-34
2023/01/29 09:19:57;;;;;;;;;;;10.10;95.80;;;;;;4590805;19;19923;-35
2023/01/29 09:21:28;;;;;;;;;;;10.20;96.10;;;;;;4590106;19;19918;-34
2023/01/29 09:23:02;;;;;;;;;;;10.20;95.90;;;;;;4591089;19;20252;-35
2023/01/29 09:24:34;;;;;;;;;;;10.20;96.10;;;;;;4589407;19;20268;-34
2023/01/29 09:26:06;;;;;;;;;;;10.10;95.90;;;;;;4590254;19;19921;-35
2023/01/29 09:27:36;;;;;;;;;;;10.10;96.00;;;;;;4589564;19;19922;-36
2023/01/29 09:29:08;;;;;;;;;;;10.20;95.80;;;;;;4594623;19;19924;-36
2023/01/29 09:30:40;;;;;;;;;;;10.10;95.90;;;;;;4593183;19;19986;-34
2023/01/29 09:32:11;;;;;;;;;;;10.00;96.00;;;;;;4595204;19;19910;-35
2023/01/29 09:33:41;;;;;;;;;;;10.00;96.30;;;;;;4593406;19;19927;-33
2023/01/29 09:35:13;;;;;;;;;;;10.00;96.30;;;;;;4594968;19;19982;-34
2023/01/29 09:36:44;;;;;;;;;;;9.90;96.40;;;;;;4594743;19;19918;-34
2023/01/29 09:38:15;;;;;;;;;;;9.90;96.40;;;;;;4591964;19;19930;-33
2023/01/29 09:39:46;;;;;;;;;;;9.80;96.30;;;;;;4594321;19;20474;-35
2023/01/29 09:41:21;;;;;;;;;;;9.80;96.20;;;;;;4593771;19;19939;-36
2023/01/29 09:43:15;;;;;;;;;;;9.80;96.40;;;;;;4592245;19;19941;-35
2023/01/29 09:44:58;;;;;;;;;;;9.80;96.30;;;;;;4593879;19;19907;-37
2023/01/29 09:46:32;;;;;;;;;;;9.90;96.30;;;;;;4593954;19;19933;-35
2023/01/29 09:48:04;;;;;;;;;;;10.00;96.20;;;;;;4592876;19;19947;-34
2023/01/29 09:49:40;;;;;;;;;;;10.00;96.10;;;;;;4593770;19;19918;-34
2023/01/29 09:51:15;;;;;;;;;;;10.00;96.20;;;;;;4592552;19;19923;-35
2023/01/29 09:52:55;;;;;;;;;;;9.90;96.20;;;;;;4592520;19;19918;-34
2023/01/29 09:54:33;;;;;;;;;;;9.80;96.30;;;;;;4593854;19;19941;-33
2023/01/29 09:56:11;;;;;;;;;;;9.90;96.40;;;;;;4594188;19;20343;-34
2023/01/29 09:57:45;;;;;;;;;;;9.90;96.40;;;;;;4592575;19;20364;-36
2023/01/29 09:59:17;;;;;;;;;;;9.90;96.50;;;;;;4591574;19;19942;-36
2023/01/29 10:00:51;;;;;;;;;;;9.90;96.40;;;;;;4594302;19;19922;-36
2023/01/29 10:02:41;;;;;;;;;;;9.80;96.50;;;;;;4593399;19;19926;-33
2023/01/29 10:04:21;;;;;;;;;;;9.80;96.60;;;;;;4593169;19;19919;-34
2023/01/29 10:05:55;;;;;;;;;;;9.80;96.60;;;;;;4593787;19;19931;-34
2023/01/29 10:07:29;;;;;;;;;;;9.70;96.50;;;;;;4593321;19;19915;-34
2023/01/29 10:09:26;;;;;;;;;;;9.50;97.00;;;;;;4591424;19;19931;-34
2023/01/29 10:11:09;;;;;;;;;;;9.50;97.00;;;;;;4592226;19;20353;-34
2023/01/29 10:12:59;;;;;;;;;;;9.60;97.00;;;;;;4591314;19;19915;-34
2023/01/29 10:14:36;;;;;;;;;;;9.60;97.00;;;;;;4591812;19;19914;-34
2023/01/29 10:16:07;;;;;;;;;;;9.50;97.10;;;;;;4590599;19;19922;-34
2023/01/29 10:17:53;;;;;;;;;;;9.50;97.10;;;;;;4591761;19;20326;-34
2023/01/29 10:19:24;;;;;;;;;;;9.60;97.30;;;;;;4591734;19;20338;-34
2023/01/29 10:21:03;;;;;;;;;;;9.70;97.20;;;;;;4591720;19;19919;-34
2023/01/29 10:22:34;;;;;;;;;;;9.70;97.20;;;;;;4591266;19;20008;-34
2023/01/29 10:24:24;;;;;;;;;;;9.50;97.10;;;;;;4590712;19;19918;-34
2023/01/29 10:25:55;;;;;;;;;;;9.50;97.20;;;;;;4590799;19;20001;-34
2023/01/29 10:27:26;;;;;;;;;;;9.60;97.30;;;;;;4591575;19;19915;-34
2023/01/29 10:28:57;;;;;;;;;;;9.60;97.20;;;;;;4592920;19;19914;-33
2023/01/29 10:30:30;;;;;;;;;;;9.50;97.30;;;;;;4591152;19;19932;-33
2023/01/29 10:32:04;;;;;;;;;;;9.60;97.50;;;;;;4589571;19;19931;-33
2023/01/29 10:33:45;;;;;;;;;;;9.60;97.50;;;;;;4591304;19;19952;-34
2023/01/29 10:35:21;;;;;;;;;;;9.60;97.40;;;;;;4589158;19;19914;-34
2023/01/29 10:36:51;;;;;;;;;;;9.70;97.40;;;;;;4590916;19;19923;-33
2023/01/29 10:38:25;;;;;;;;;;;9.60;97.40;;;;;;4591100;19;20300;-34
2023/01/29 10:39:58;;;;;;;;;;;9.60;97.50;;;;;;4588892;19;20379;-34
2023/01/29 10:41:41;;;;;;;;;;;9.60;97.50;;;;;;4589806;19;19918;-34
2023/01/29 10:43:15;;;;;;;;;;;9.50;97.50;;;;;;4590379;19;19919;-34
2023/01/29 10:45:15;;;;;;;;;;;9.50;97.70;;;;;;4592294;19;19925;-34
2023/01/29 10:47:04;;;;;;;;;;;9.50;97.70;;;;;;4592073;19;20278;-34
2023/01/29 10:48:51;;;;;;;;;;;9.70;97.60;;;;;;4591446;19;19926;-34
2023/01/29 10:50:25;;;;;;;;;;;9.80;97.50;;;;;;4589864;19;20284;-33
2023/01/29 10:52:10;;;;;;;;;;;9.70;97.50;;;;;;4592387;19;19910;-34
2023/01/29 10:53:54;;;;;;;;;;;9.80;97.70;;;;;;4591693;19;19939;-34
2023/01/29 10:55:25;;;;;;;;;;;9.70;97.60;;;;;;4590395;19;19923;-34
2023/01/29 10:57:07;;;;;;;;;;;9.70;97.70;;;;;;4592246;19;20242;-34
2023/01/29 10:58:48;;;;;;;;;;;9.70;97.70;;;;;;4589760;19;19934;-34
2023/01/29 11:00:30;;;;;;;;;;;9.70;97.70;;;;;;4592825;19;19923;-34
2023/01/29 11:02:02;;;;;;;;;;;9.70;97.70;;;;;;4592622;19;19942;-34
2023/01/29 11:03:33;;;;;;;;;;;9.80;97.70;;;;;;4593091;19;19926;-34
2023/01/29 11:05:07;;;;;;;;;;;9.80;97.70;;;;;;4591323;19;20340;-34
2023/01/29 11:06:38;;;;;;;;;;;9.50;97.80;;;;;;4590893;19;20006;-33
2023/01/29 11:08:11;;;;;;;;;;;9.50;98.10;;;;;;4594121;19;19923;-33
2023/01/29 11:09:43;;;;;;;;;;;9.40;98.10;;;;;;4590988;19;19920;-33
2023/01/29 11:11:17;;;;;;;;;;;9.50;98.20;;;;;;4590753;19;19914;-33
2023/01/29 11:12:48;;;;;;;;;;;9.60;98.20;;;;;;4591483;19;19946;-33
2023/01/29 11:14:31;;;;;;;;;;;9.60;98.10;;;;;;4591142;19;19915;-33
2023/01/29 11:16:03;;;;;;;;;;;9.60;98.10;;;;;;4589108;19;19923;-33
2023/01/29 11:17:34;;;;;;;;;;;9.50;98.10;;;;;;4592006;19;19911;-33
2023/01/29 11:19:05;;;;;;;;;;;9.50;98.20;;;;;;4590357;19;19932;-33
2023/01/29 11:20:36;;;;;;;;;;;9.60;98.10;;;;;;4590459;19;20294;-34
2023/01/29 11:22:18;;;;;;;;;;;9.60;98.10;;;;;;4590967;19;20334;-34
2023/01/29 11:23:49;;;;;;;;;;;9.90;97.80;;;;;;4590973;19;19973;-34
2023/01/29 11:25:21;;;;;;;;;;;9.90;97.70;;;;;;4589667;19;19942;-33
2023/01/29 11:26:56;;;;;;;;;;;9.90;97.70;;;;;;4590675;19;19919;-34
2023/01/29 11:28:37;;;;;;;;;;;10.10;97.40;;;;;;4589990;19;19915;-34
2023/01/29 11:30:13;;;;;;;;;;;10.10;97.40;;;;;;4590687;19;20001;-34
2023/01/29 11:31:44;;;;;;;;;;;10.00;97.50;;;;;;4589988;19;19922;-34
2023/01/29 11:33:19;;;;;;;;;;;10.00;97.70;;;;;;4590396;19;19921;-33
2023/01/29 11:34:56;;;;;;;;;;;9.80;97.70;;;;;;4590522;19;19974;-34
2023/01/29 11:36:35;;;;;;;;;;;9.60;97.90;;;;;;4590653;19;19925;-33
2023/01/29 11:38:15;;;;;;;;;;;9.60;98.00;;;;;;4590424;19;20018;-34
2023/01/29 11:39:46;;;;;;;;;;;9.70;98.00;;;;;;4590988;19;20338;-34
2023/01/29 15:09:16;;;;;;;;;;;10.00;98.80;;;;;;4592653;19;19923;-34
2023/01/29 15:11:32;;;;;;;;;;;9.90;98.90;;;;;;4592423;19;19918;-34
2023/01/29 15:12:55;;;;;;;;;;;9.90;98.90;;;;;;4591974;19;19938;-33
2023/01/29 15:14:35;;;;;;;;;;;9.70;99.10;;;;;;4589328;19;20348;-33
2023/01/29 15:16:25;;;;;;;;;;;9.50;99.20;;;;;;4591324;19;20271;-35
2023/01/29 15:18:02;;;;;;;;;;;9.60;99.40;;;;;;4591654;19;20329;-37
2023/01/29 15:19:43;;;;;;;;;;;9.60;99.20;;;;;;4591024;19;19911;-34
2023/01/29 15:21:15;;;;;;;;;;;9.60;99.30;;;;;;4592589;19;19926;-35
2023/01/29 15:22:46;;;;;;;;;;;9.70;99.20;;;;;;4592415;19;19934;-35
2023/01/29 15:24:17;;;;;;;;;;;9.70;99.20;;;;;;4591909;19;19941;-34
2023/01/29 15:25:48;;;;;;;;;;;9.60;99.20;;;;;;4591458;19;19927;-35
2023/01/29 15:27:19;;;;;;;;;;;9.70;99.10;;;;;;4591112;19;19978;-34
2023/01/29 15:28:54;;;;;;;;;;;9.80;99.10;;;;;;4591917;19;19918;-33
2023/01/29 15:30:27;;;;;;;;;;;9.60;99.20;;;;;;4591758;19;19919;-36
2023/01/29 15:31:58;;;;;;;;;;;9.60;99.20;;;;;;4590955;19;19931;-34
2023/01/29 15:33:32;;;;;;;;;;;9.60;99.10;;;;;;4590807;19;19915;-35
2023/01/29 15:35:07;;;;;;;;;;;9.60;99.20;;;;;;4589954;19;19930;-34
2023/01/29 15:36:39;;;;;;;;;;;9.60;99.20;;;;;;4592833;19;19919;-34
2023/01/29 15:38:14;;;;;;;;;;;9.70;99.10;;;;;;4589922;19;19977;-33
2023/01/29 15:39:45;;;;;;;;;;;9.70;99.10;;;;;;4590783;19;19915;-33
2023/01/29 15:41:17;;;;;;;;;;;9.70;99.40;;;;;;4593702;19;19931;-35
2023/01/29 15:42:48;;;;;;;;;;;9.70;99.10;;;;;;4591473;19;19919;-36
2023/01/29 15:44:22;;;;;;;;;;;9.60;99.20;;;;;;4591710;19;19966;-36
2023/01/29 15:45:54;;;;;;;;;;;9.60;99.30;;;;;;4591916;19;20320;-33
2023/01/29 15:47:27;;;;;;;;;;;9.60;99.30;;;;;;4591308;19;19942;-35
2023/01/29 15:48:58;;;;;;;;;;;9.50;99.30;;;;;;4592233;19;19948;-36
2023/01/29 15:50:30;;;;;;;;;;;9.50;99.40;;;;;;4592638;19;20313;-33
2023/01/29 15:52:02;;;;;;;;;;;9.40;99.50;;;;;;4593341;19;20343;-35
2023/01/29 15:53:34;;;;;;;;;;;9.40;99.50;;;;;;4591070;19;19951;-35
2023/01/29 15:55:05;;;;;;;;;;;9.40;99.50;;;;;;4591543;19;19918;-36
2023/01/29 15:56:38;;;;;;;;;;;9.40;99.60;;;;;;4593014;19;19950;-34
2023/01/29 15:58:16;;;;;;;;;;;9.40;99.40;;;;;;4594408;19;19915;-33
2023/01/29 15:59:50;;;;;;;;;;;9.50;99.40;;;;;;4593774;19;20279;-34
2023/01/29 16:01:24;;;;;;;;;;;9.60;99.50;;;;;;4591414;19;20261;-34
2023/01/29 16:02:55;;;;;;;;;;;9.60;99.40;;;;;;4591404;19;19918;-34
2023/01/29 16:04:27;;;;;;;;;;;9.50;99.50;;;;;;4592237;19;19914;-34
2023/01/29 16:05:59;;;;;;;;;;;9.50;99.60;;;;;;4592109;19;19926;-34
2023/01/29 16:07:30;;;;;;;;;;;9.50;99.50;;;;;;4592716;19;19922;-34
2023/01/29 16:14:20;;;;;;;;;;;9.50;99.50;;;;;;4590529;19;19914;-34
2023/01/29 16:16:03;;;;;;;;;;;9.40;99.70;;;;;;4590914;19;20007;-33
2023/01/29 16:17:39;;;;;;;;;;;9.50;99.70;;;;;;4591656;19;19921;-33
2023/01/29 16:19:22;;;;;;;;;;;9.30;99.60;;;;;;4591044;19;19935;-33
2023/01/29 16:20:54;;;;;;;;;;;9.40;99.70;;;;;;4591874;19;19930;-33
2023/01/29 16:22:25;;;;;;;;;;;9.30;99.80;;;;;;4593683;19;20346;-33
2023/01/29 16:24:00;;;;;;;;;;;9.50;99.60;;;;;;4590255;19;19915;-33
2023/01/29 16:25:31;;;;;;;;;;;9.50;99.50;;;;;;4591069;19;20322;-34
2023/01/29 16:27:10;;;;;;;;;;;9.50;99.70;;;;;;4590593;19;20244;-33
2023/01/29 16:28:41;;;;;;;;;;;9.50;99.50;;;;;;4591345;19;19947;-33
2023/01/29 16:30:13;;;;;;;;;;;9.50;99.50;;;;;;4590487;19;19919;-33
2023/01/29 16:31:44;;;;;;;;;;;9.60;99.50;;;;;;4590455;19;19922;-33
2023/01/29 16:33:16;;;;;;;;;;;9.60;99.40;;;;;;4590229;19;19919;-33
2023/01/29 16:34:47;;;;;;;;;;;9.70;99.60;;;;;;4591333;19;19918;-33
2023/01/29 16:36:19;;;;;;;;;;;9.60;99.50;;;;;;4590917;19;19926;-33
2023/01/29 16:37:50;;;;;;;;;;;9.70;99.60;;;;;;4590746;19;20229;-33
2023/01/29 16:39:37;;;;;;;;;;;9.70;99.50;;;;;;4592536;19;19923;-33
2023/01/29 16:41:14;;;;;;;;;;;9.60;99.60;;;;;;4591422;19;20325;-33
2023/01/29 16:42:45;;;;;;;;;;;9.60;99.80;;;;;;4591697;19;19929;-34
2023/01/29 16:44:19;;;;;;;;;;;9.50;99.60;;;;;;4591831;19;19925;-33
2023/01/29 16:46:10;;;;;;;;;;;9.50;99.60;;;;;;4592001;19;19918;-33
2023/01/29 16:47:41;;;;;;;;;;;9.50;99.80;;;;;;4591065;19;20266;-33
2023/01/29 16:49:27;;;;;;;;;;;9.50;99.80;;;;;;4591036;19;19934;-33
2023/01/29 16:51:13;;;;;;;;;;;9.50;99.70;;;;;;4591024;19;20238;-32
2023/01/29 16:52:57;;;;;;;;;;;9.70;99.60;;;;;;4591498;19;19910;-32
2023/01/29 16:54:28;;;;;;;;;;;9.90;99.40;;;;;;4589294;19;19923;-33
2023/01/29 16:56:00;;;;;;;;;;;10.00;99.20;;;;;;4588822;19;20234;-32
2023/01/29 16:57:32;;;;;;;;;;;10.20;99.00;;;;;;4588468;19;20273;-32
2023/01/29 16:59:04;;;;;;;;;;;10.20;98.80;;;;;;4588053;19;20248;-33
2023/01/29 17:00:35;;;;;;;;;;;10.30;98.70;;;;;;4588670;19;19922;-33
2023/01/29 17:02:26;;;;;;;;;;;10.30;98.70;;;;;;4588932;19;20019;-33
2023/01/29 17:04:04;;;;;;;;;;;10.40;98.70;;;;;;4589039;19;19988;-33
2023/01/29 17:05:35;;;;;;;;;;;10.40;98.60;;;;;;4588429;19;19918;-33
2023/01/29 17:07:11;;;;;;;;;;;10.40;98.50;;;;;;4588835;19;20345;-33
2023/01/29 17:08:42;;;;;;;;;;;10.50;98.50;;;;;;4588064;19;19911;-33
2023/01/29 17:10:18;;;;;;;;;;;10.50;98.50;;;;;;4589126;19;19921;-33
2023/01/29 17:11:57;;;;;;;;;;;10.60;98.50;;;;;;4588407;19;19927;-34
2023/01/29 17:15:27;;;;;;;;;;;10.70;98.40;;;;;;4587782;19;19907;-33
2023/01/29 17:17:02;;;;;;;;;;;10.60;98.30;;;;;;4588662;19;20322;-34
2023/01/29 17:18:33;;;;;;;;;;;10.70;98.40;;;;;;4588346;19;20344;-36
2023/01/29 17:20:12;;;;;;;;;;;10.70;98.40;;;;;;4588584;19;19919;-34
2023/01/29 17:21:43;;;;;;;;;;;10.80;98.30;;;;;;4589238;19;19911;-33
2023/01/29 17:23:15;;;;;;;;;;;10.80;98.30;;;;;;4588342;19;19927;-33
2023/01/29 17:24:50;;;;;;;;;;;10.70;98.30;;;;;;4588927;19;19949;-33
2023/01/29 17:26:21;;;;;;;;;;;10.70;98.30;;;;;;4590875;19;19922;-33
2023/01/29 17:27:52;;;;;;;;;;;10.70;98.30;;;;;;4592028;19;19926;-34
2023/01/29 17:29:23;;;;;;;;;;;10.70;98.30;;;;;;4591108;19;19978;-32